createdAt,value
2019-03-04T00:01:58.877Z,79.62
2019-03-04T00:04:26.447Z,79.64
2019-03-04T00:06:53.890Z,79.97
2019-03-04T00:09:21.362Z,79.54
2019-03-04T00:11:48.813Z,79.09
2019-03-04T00:14:16.277Z,79.85
2019-03-04T00:16:43.712Z,79.31
2019-03-04T00:19:11.178Z,79.25
2019-03-04T00:21:38.625Z,79.50
2019-03-04T00:24:06.112Z,80.11
2019-03-04T00:26:33.573Z,80.32
2019-03-04T00:29:01.031Z,80.29
2019-03-04T00:31:28.507Z,79.74
2019-03-04T00:33:55.966Z,80.08
2019-03-04T00:36:24.419Z,79.97
2019-03-04T00:38:54.593Z,80.33
2019-03-04T00:41:22.050Z,80.91
2019-03-04T00:43:49.535Z,81.27
2019-03-04T00:46:17.002Z,80.42
2019-03-04T00:48:44.480Z,79.82
2019-03-04T00:51:12.303Z,80.30
2019-03-04T00:53:39.738Z,80.04
2019-03-04T00:56:07.381Z,80.59
2019-03-04T00:58:34.948Z,80.43
2019-03-04T01:01:02.371Z,80.06
2019-03-04T01:03:29.835Z,80.71
2019-03-04T01:05:57.385Z,80.72
2019-03-04T01:08:24.837Z,81.48
2019-03-04T01:10:52.277Z,80.99
2019-03-04T01:13:19.717Z,80.87
2019-03-04T01:15:47.350Z,81.10
2019-03-04T01:18:14.806Z,80.70
2019-03-04T01:20:42.280Z,81.77
2019-03-04T01:23:09.748Z,81.12
2019-03-04T01:25:37.278Z,81.71
2019-03-04T01:28:04.767Z,81.60
2019-03-04T01:30:32.259Z,81.64
2019-03-04T01:32:59.716Z,81.53
2019-03-04T01:35:27.158Z,81.36
2019-03-04T01:37:54.619Z,80.97
2019-03-04T01:40:22.747Z,81.09
2019-03-04T01:42:50.219Z,81.15
2019-03-04T01:45:17.765Z,80.94
2019-03-04T01:47:45.262Z,80.76
2019-03-04T01:50:14.662Z,81.55
2019-03-04T01:52:42.371Z,80.40
2019-03-04T01:55:12.497Z,80.88
2019-03-04T01:57:40.120Z,80.79
2019-03-04T02:00:10.506Z,80.28
2019-03-04T02:02:38.010Z,80.79
2019-03-04T02:05:06.277Z,80.86
2019-03-04T02:07:33.722Z,80.46
2019-03-04T02:10:01.257Z,79.62
2019-03-04T02:12:28.694Z,80.22
2019-03-04T02:14:56.157Z,80.38
2019-03-04T02:17:23.620Z,80.66
2019-03-04T02:19:51.147Z,81.25
2019-03-04T02:22:18.639Z,81.67
2019-03-04T02:24:46.057Z,81.10
2019-03-04T02:27:13.555Z,80.80
2019-03-04T02:29:40.985Z,81.18
2019-03-04T02:32:08.500Z,81.09
2019-03-04T02:34:36.381Z,81.22
2019-03-04T02:37:04.309Z,81.58
2019-03-04T02:39:32.223Z,81.20
2019-03-04T02:41:59.838Z,80.92
2019-03-04T02:44:27.417Z,81.02
2019-03-04T02:46:54.876Z,81.27
2019-03-04T02:49:22.318Z,81.28
2019-03-04T02:51:49.818Z,81.00
2019-03-04T02:54:17.278Z,81.49
2019-03-04T02:56:45.279Z,80.96
2019-03-04T02:59:12.744Z,80.74
2019-03-04T03:01:40.336Z,80.89
2019-03-04T03:04:07.782Z,80.88
2019-03-04T03:06:35.658Z,81.52
2019-03-04T03:09:05.079Z,81.86
2019-03-04T03:11:32.565Z,81.48
2019-03-04T03:14:00.103Z,81.77
2019-03-04T03:16:27.582Z,81.07
2019-03-04T03:18:55.063Z,80.71
2019-03-04T03:21:22.611Z,81.50
2019-03-04T03:23:50.077Z,81.49
2019-03-04T03:26:17.524Z,81.19
2019-03-04T03:28:45.001Z,81.12
2019-03-04T03:31:12.538Z,82.33
2019-03-04T03:33:40.039Z,81.53
2019-03-04T03:36:07.479Z,81.96
2019-03-04T03:38:34.959Z,83.08
2019-03-04T03:41:02.443Z,82.04
2019-03-04T03:43:29.879Z,81.99
2019-03-04T03:45:57.337Z,81.76
2019-03-04T03:48:24.838Z,82.21
2019-03-04T03:50:52.426Z,81.95
2019-03-04T03:53:24.479Z,81.53
2019-03-04T03:55:51.909Z,81.37
2019-03-04T03:58:19.369Z,82.31
2019-03-04T04:00:46.940Z,81.55
2019-03-04T04:03:14.618Z,81.41
2019-03-04T04:05:42.058Z,81.71
2019-03-04T04:08:09.543Z,81.87
2019-03-04T04:10:36.978Z,81.59
2019-03-04T04:13:04.458Z,82.01
2019-03-04T04:15:31.899Z,81.83
2019-03-04T04:17:59.730Z,80.89
2019-03-04T04:20:29.239Z,81.79
2019-03-04T04:22:56.700Z,81.46
2019-03-04T04:25:24.142Z,80.63
2019-03-04T04:27:51.674Z,80.93
2019-03-04T04:30:21.478Z,81.40
2019-03-04T04:32:49.031Z,81.81
2019-03-04T04:35:18.649Z,81.71
2019-03-04T04:37:46.091Z,79.14
2019-03-04T04:40:13.698Z,79.49
2019-03-04T04:42:41.169Z,80.40
2019-03-04T04:45:08.803Z,80.50
2019-03-04T04:47:36.336Z,81.23
2019-03-04T04:50:04.924Z,81.25
2019-03-04T04:52:32.420Z,81.47
2019-03-04T04:54:59.838Z,81.71
2019-03-04T04:57:27.319Z,81.83
2019-03-04T04:59:54.779Z,82.35
2019-03-04T05:02:22.212Z,81.82
2019-03-04T05:04:49.690Z,81.63
2019-03-04T05:07:17.144Z,82.02
2019-03-04T05:09:44.581Z,81.22
2019-03-04T05:12:12.058Z,80.64
2019-03-04T05:14:39.539Z,80.82
2019-03-04T05:17:07.008Z,80.80
2019-03-04T05:19:34.553Z,81.34
2019-03-04T05:22:01.989Z,81.48
2019-03-04T05:24:29.702Z,81.38
2019-03-04T05:26:57.331Z,81.19
2019-03-04T05:29:24.797Z,80.55
2019-03-04T05:31:52.258Z,80.23
2019-03-04T05:34:19.855Z,80.91
2019-03-04T05:36:47.338Z,81.50
2019-03-04T05:39:14.768Z,80.51
2019-03-04T05:41:42.222Z,81.10
2019-03-04T05:44:09.678Z,77.71
2019-03-04T05:46:37.138Z,80.41
2019-03-04T05:49:04.592Z,79.52
2019-03-04T05:51:32.036Z,80.25
2019-03-04T05:53:59.537Z,80.21
2019-03-04T05:56:26.973Z,80.40
2019-03-04T05:58:54.445Z,80.01
2019-03-04T06:01:32.818Z,79.60
2019-03-04T06:04:11.123Z,80.63
2019-03-04T06:06:51.887Z,80.30
2019-03-04T06:09:19.363Z,79.89
2019-03-04T06:11:46.821Z,80.39
2019-03-04T06:14:14.277Z,80.03
2019-03-04T06:16:47.342Z,78.77
2019-03-04T06:19:11.213Z,79.25
2019-03-04T06:21:38.726Z,79.23
2019-03-04T06:24:06.260Z,77.06
2019-03-04T06:26:33.818Z,78.29
2019-03-04T06:29:01.287Z,79.14
2019-03-04T06:31:28.751Z,79.17
2019-03-04T06:33:56.318Z,78.88
2019-03-04T06:36:23.752Z,78.42
2019-03-04T06:38:51.230Z,77.57
2019-03-04T06:41:18.670Z,77.62
2019-03-04T06:43:46.173Z,78.16
2019-03-04T06:46:13.615Z,78.98
2019-03-04T06:48:41.042Z,78.83
2019-03-04T06:51:09.823Z,78.93
2019-03-04T06:54:04.738Z,77.61
2019-03-04T06:56:42.578Z,76.72
2019-03-04T06:59:41.029Z,77.88
2019-03-04T07:02:11.008Z,78.49
2019-03-04T07:05:19.130Z,77.62
2019-03-04T07:07:46.597Z,77.50
2019-03-04T07:10:14.054Z,77.81
2019-03-04T07:12:41.539Z,78.06
2019-03-04T07:15:09.129Z,78.71
2019-03-04T07:17:36.723Z,78.73
2019-03-04T07:20:10.357Z,77.20
2019-03-04T07:22:37.818Z,78.32
2019-03-04T07:25:05.399Z,78.64
2019-03-04T07:27:32.857Z,77.45
2019-03-04T07:30:00.328Z,77.01
2019-03-04T07:32:28.893Z,77.64
2019-03-04T07:34:56.326Z,73.81
2019-03-04T07:37:23.779Z,73.93
2019-03-04T07:39:51.582Z,75.13
2019-03-04T07:42:19.466Z,72.14
2019-03-04T07:44:47.286Z,67.28
2019-03-04T07:47:15.219Z,70.73
2019-03-04T07:49:46.974Z,69.81
2019-03-04T07:52:14.423Z,72.77
2019-03-04T07:54:41.835Z,74.25
2019-03-04T07:57:09.224Z,73.17
2019-03-04T07:59:36.696Z,72.71
2019-03-04T08:02:04.405Z,74.00
2019-03-04T08:04:31.907Z,71.70
2019-03-04T08:07:44.221Z,69.64
2019-03-04T08:10:48.100Z,69.23
2019-03-04T08:13:22.767Z,68.71
2019-03-04T08:15:55.055Z,72.57
2019-03-04T08:18:22.547Z,73.26
2019-03-04T08:20:50.014Z,69.90
2019-03-04T08:23:17.440Z,70.18
2019-03-04T08:25:45.000Z,71.57
2019-03-04T08:28:14.028Z,73.10
2019-03-04T08:30:41.613Z,71.30
2019-03-04T08:33:09.112Z,72.03
2019-03-04T08:35:40.900Z,69.04
2019-03-04T08:38:08.319Z,68.67
2019-03-04T08:40:35.790Z,68.85
2019-03-04T08:43:03.219Z,71.80
2019-03-04T08:45:30.649Z,59.07
2019-03-04T08:48:00.378Z,57.00
2019-03-04T08:50:27.465Z,54.18
2019-03-04T08:52:54.930Z,53.24
2019-03-04T08:55:22.380Z,52.12
2019-03-04T08:57:49.788Z,52.22
2019-03-04T09:00:19.272Z,51.41
2019-03-04T09:02:46.686Z,51.60
2019-03-04T09:05:14.262Z,51.90
2019-03-04T09:07:41.778Z,52.08
2019-03-04T09:10:13.932Z,50.70
2019-03-04T09:12:41.446Z,50.52
2019-03-04T09:15:09.120Z,51.92
2019-03-04T09:17:36.521Z,50.95
2019-03-04T09:20:04.893Z,50.03
2019-03-04T09:22:32.355Z,50.23
2019-03-04T09:24:59.858Z,49.65
2019-03-04T09:27:27.287Z,49.42
2019-03-04T09:29:54.838Z,48.67
2019-03-04T09:32:22.255Z,48.23
2019-03-04T09:34:49.660Z,49.42
2019-03-04T09:37:17.136Z,49.63
2019-03-04T09:39:44.565Z,49.22
2019-03-04T09:42:25.872Z,49.86
2019-03-04T09:44:53.287Z,48.70
2019-03-04T09:47:20.719Z,48.94
2019-03-04T09:49:48.178Z,48.34
2019-03-04T09:52:15.856Z,48.09
2019-03-04T09:54:43.303Z,48.65
2019-03-04T09:57:10.791Z,47.99
2019-03-04T09:59:38.200Z,47.98
2019-03-04T10:02:18.689Z,46.53
2019-03-04T10:05:42.934Z,45.88
2019-03-04T10:08:32.621Z,45.23
2019-03-04T10:11:48.217Z,47.45
2019-03-04T10:14:37.193Z,46.87
2019-03-04T10:17:41.167Z,46.49
2019-03-04T10:20:40.753Z,46.29
2019-03-04T10:24:02.274Z,45.99
2019-03-04T10:27:00.423Z,45.36
2019-03-04T10:30:21.320Z,45.32
2019-03-04T10:33:16.631Z,44.60
2019-03-04T10:36:18.624Z,44.51
2019-03-04T10:39:17.797Z,44.59
2019-03-04T10:42:36.513Z,44.62
2019-03-04T10:45:51.745Z,44.09
2019-03-04T10:48:19.220Z,43.57
2019-03-04T10:50:46.658Z,43.87
2019-03-04T10:53:14.127Z,44.28
2019-03-04T10:55:42.513Z,44.70
2019-03-04T10:58:10.406Z,46.10
2019-03-04T11:00:38.061Z,44.83
2019-03-04T11:03:05.478Z,43.41
2019-03-04T11:05:32.953Z,42.68
2019-03-04T11:08:00.372Z,43.11
2019-03-04T11:10:27.944Z,43.08
2019-03-04T11:12:55.381Z,43.25
2019-03-04T11:15:24.539Z,42.34
2019-03-04T11:17:54.212Z,41.08
2019-03-04T11:20:21.559Z,41.79
2019-03-04T11:22:49.142Z,41.83
2019-03-04T11:25:17.804Z,41.62
2019-03-04T11:27:45.390Z,41.11
2019-03-04T11:30:13.629Z,42.88
2019-03-04T11:32:41.083Z,43.94
2019-03-04T11:35:10.093Z,42.78
2019-03-04T11:37:37.559Z,42.36
2019-03-04T11:40:23.534Z,42.04
2019-03-04T11:42:50.953Z,43.43
2019-03-04T11:45:19.052Z,42.47
2019-03-04T11:47:46.522Z,45.29
2019-03-04T11:50:14.268Z,44.67
2019-03-04T11:52:42.131Z,43.75
2019-03-04T11:55:10.171Z,35.93
2019-03-04T11:57:37.699Z,36.29
2019-03-04T12:00:14.453Z,38.14
2019-03-04T12:02:41.968Z,36.97
2019-03-04T12:05:10.095Z,38.83
2019-03-04T12:07:37.614Z,36.46
2019-03-04T12:10:07.437Z,36.10
2019-03-04T12:12:34.901Z,36.12
2019-03-04T12:15:02.608Z,33.88
2019-03-04T12:17:30.100Z,34.56
2019-03-04T12:19:57.535Z,34.80
2019-03-04T12:22:24.998Z,34.79
2019-03-04T12:24:52.873Z,32.53
2019-03-04T12:27:20.283Z,34.95
2019-03-04T12:29:47.813Z,33.71
2019-03-04T12:32:22.423Z,31.72
2019-03-04T12:34:49.923Z,39.05
2019-03-04T12:37:17.367Z,40.96
2019-03-04T12:39:44.934Z,43.44
2019-03-04T12:42:12.427Z,40.54
2019-03-04T12:44:39.870Z,39.33
2019-03-04T12:47:07.320Z,39.04
2019-03-04T12:49:34.797Z,40.86
2019-03-04T12:52:02.265Z,41.19
2019-03-04T12:54:29.858Z,41.04
2019-03-04T12:56:57.327Z,42.79
2019-03-04T12:59:25.075Z,42.93
2019-03-04T13:01:52.608Z,44.30
2019-03-04T13:04:20.152Z,46.57
2019-03-04T13:06:47.681Z,48.00
2019-03-04T13:09:15.232Z,48.67
2019-03-04T13:11:42.681Z,48.16
2019-03-04T13:14:10.174Z,46.93
2019-03-04T13:16:37.592Z,50.54
2019-03-04T13:19:05.134Z,50.74
2019-03-04T13:21:32.777Z,52.61
2019-03-04T13:24:00.232Z,54.78
2019-03-04T13:26:27.665Z,53.85
2019-03-04T13:28:55.537Z,53.86
2019-03-04T13:31:23.399Z,56.20
2019-03-04T13:33:50.902Z,56.61
2019-03-04T13:36:19.593Z,56.70
2019-03-04T13:38:47.094Z,55.17
2019-03-04T13:41:14.645Z,57.13
2019-03-04T13:43:42.195Z,56.64
2019-03-04T13:46:09.693Z,57.67
2019-03-04T13:48:37.184Z,57.92
2019-03-04T13:51:05.740Z,57.53
2019-03-04T13:53:33.269Z,58.24
2019-03-04T13:56:00.833Z,58.48
2019-03-04T13:58:28.269Z,58.27
2019-03-04T14:00:55.769Z,59.33
2019-03-04T14:03:24.128Z,59.58
2019-03-04T14:05:51.718Z,60.57
2019-03-04T14:08:19.448Z,59.73
2019-03-04T14:10:47.042Z,60.41
2019-03-04T14:13:14.541Z,60.71
2019-03-04T14:15:42.571Z,59.76
2019-03-04T14:18:10.117Z,61.27
2019-03-04T14:20:37.684Z,60.45
2019-03-04T14:23:05.306Z,60.02
2019-03-04T14:25:32.858Z,61.21
2019-03-04T14:28:00.493Z,61.00
2019-03-04T14:30:28.284Z,61.14
2019-03-04T14:32:56.250Z,61.33
2019-03-04T14:35:23.985Z,62.18
2019-03-04T14:37:51.589Z,64.29
2019-03-04T14:40:19.333Z,64.95
2019-03-04T14:42:46.984Z,65.01
2019-03-04T14:45:16.418Z,67.42
2019-03-04T14:47:44.153Z,68.05
2019-03-04T14:50:13.594Z,69.06
2019-03-04T14:52:41.321Z,71.62
2019-03-04T14:55:11.828Z,71.98
2019-03-04T14:57:39.876Z,73.26
2019-03-04T15:00:16.775Z,74.15
2019-03-04T15:02:44.514Z,73.72
2019-03-04T15:05:12.365Z,75.13
2019-03-04T15:07:40.086Z,75.16
2019-03-04T15:10:08.090Z,74.74
2019-03-04T15:12:36.245Z,74.54
2019-03-04T15:15:04.451Z,74.85
2019-03-04T15:17:32.301Z,75.13
2019-03-04T15:20:09.740Z,73.79
2019-03-04T15:22:37.385Z,75.31
2019-03-04T15:25:07.009Z,76.45
2019-03-04T15:27:35.242Z,77.40
2019-03-04T15:30:03.255Z,79.28
2019-03-04T15:32:31.400Z,78.74
2019-03-04T15:34:59.418Z,80.56
2019-03-04T15:37:28.028Z,76.40
2019-03-04T15:39:55.812Z,79.49
2019-03-04T15:42:23.363Z,82.57
2019-03-04T15:44:51.305Z,79.02
2019-03-04T15:47:19.441Z,78.25
2019-03-04T15:49:47.223Z,78.66
2019-03-04T15:52:17.248Z,77.75
2019-03-04T15:54:45.095Z,78.42
2019-03-04T15:57:13.039Z,79.69
2019-03-04T15:59:41.410Z,80.52
2019-03-04T16:02:11.369Z,80.57
2019-03-04T16:04:39.433Z,82.85
2019-03-04T16:07:08.872Z,83.47
2019-03-04T16:09:37.958Z,84.29
2019-03-04T16:12:07.706Z,83.34
2019-03-04T16:14:37.575Z,81.69
2019-03-04T16:17:08.280Z,82.65
2019-03-04T16:19:36.261Z,81.17
2019-03-04T16:22:04.499Z,80.87
2019-03-04T16:24:32.525Z,80.64
2019-03-04T16:27:07.787Z,80.50
2019-03-04T16:29:37.282Z,81.53
2019-03-04T16:32:05.402Z,80.52
2019-03-04T16:34:33.450Z,81.98
2019-03-04T16:37:05.897Z,82.23
2019-03-04T16:39:33.959Z,83.32
2019-03-04T16:42:03.554Z,81.55
2019-03-04T16:44:31.733Z,83.64
2019-03-04T16:47:00.916Z,83.29
2019-03-04T16:49:29.206Z,85.62
2019-03-04T16:51:59.863Z,86.13
2019-03-04T16:54:28.091Z,86.91
2019-03-04T16:56:56.590Z,85.90
2019-03-04T16:59:24.694Z,84.21
2019-03-04T17:01:54.014Z,84.40
2019-03-04T17:04:22.109Z,80.73
2019-03-04T17:06:50.520Z,85.85
2019-03-04T17:09:19.432Z,85.60
2019-03-04T17:11:47.410Z,85.22
2019-03-04T17:14:15.429Z,85.47
2019-03-04T17:16:45.091Z,82.59
2019-03-04T17:19:13.059Z,83.41
2019-03-04T17:21:40.988Z,84.06
2019-03-04T17:24:09.421Z,85.08
2019-03-04T17:26:37.599Z,83.16
2019-03-04T17:29:05.753Z,85.78
2019-03-04T17:31:33.749Z,84.72
2019-03-04T17:34:01.817Z,84.16
2019-03-04T17:36:29.733Z,83.17
2019-03-04T17:38:57.903Z,84.73
2019-03-04T17:41:25.957Z,85.22
2019-03-04T17:43:53.936Z,84.30
2019-03-04T17:46:22.071Z,84.02
2019-03-04T17:48:50.096Z,81.01
2019-03-04T17:51:18.189Z,81.59
2019-03-04T17:53:46.214Z,82.66
2019-03-04T17:56:14.232Z,82.01
2019-03-04T17:58:42.355Z,81.77
2019-03-04T18:01:10.523Z,82.81
2019-03-04T18:03:38.571Z,80.71
2019-03-04T18:06:06.598Z,81.60
2019-03-04T18:08:35.222Z,83.46
2019-03-04T18:11:03.238Z,82.51
2019-03-04T18:13:31.602Z,81.47
2019-03-04T18:15:59.737Z,84.57
2019-03-04T18:18:27.862Z,85.24
2019-03-04T18:20:55.966Z,85.94
2019-03-04T18:23:24.094Z,87.15
2019-03-04T18:26:06.710Z,83.64
2019-03-04T18:29:17.897Z,83.80
2019-03-04T18:32:18.100Z,86.26
2019-03-04T18:35:29.585Z,85.39
2019-03-04T18:38:09.850Z,82.15
2019-03-04T18:41:11.337Z,83.76
2019-03-04T18:43:55.885Z,83.88
2019-03-04T18:46:46.716Z,84.52
2019-03-04T18:49:14.748Z,86.53
2019-03-04T18:51:43.202Z,83.45
2019-03-04T18:54:18.670Z,83.78
2019-03-04T18:56:46.777Z,82.69
2019-03-04T18:59:14.958Z,85.54
2019-03-04T19:01:43.004Z,83.11
2019-03-04T19:04:11.195Z,85.39
2019-03-04T19:06:39.254Z,86.87
2019-03-04T19:09:08.925Z,87.10
2019-03-04T19:11:37.371Z,87.77
2019-03-04T19:14:05.499Z,88.39
2019-03-04T19:16:33.646Z,87.70
2019-03-04T19:19:01.744Z,87.83
2019-03-04T19:21:31.857Z,85.73
2019-03-04T19:23:59.962Z,87.79
2019-03-04T19:26:28.084Z,88.84
2019-03-04T19:28:56.272Z,88.10
2019-03-04T19:31:24.299Z,86.24
2019-03-04T19:33:52.750Z,85.14
2019-03-04T19:36:20.731Z,84.92
2019-03-04T19:38:48.778Z,86.66
2019-03-04T19:41:16.889Z,85.54
2019-03-04T19:43:56.049Z,86.78
2019-03-04T19:46:24.142Z,87.20
2019-03-04T19:48:52.244Z,87.22
2019-03-04T19:51:20.823Z,87.59
2019-03-04T19:53:51.786Z,85.16
2019-03-04T19:56:19.901Z,83.30
2019-03-04T19:58:48.469Z,85.83
2019-03-04T20:01:16.696Z,86.54
2019-03-04T20:03:44.831Z,86.08
2019-03-04T20:06:12.983Z,87.19
2019-03-04T20:08:41.127Z,87.69
2019-03-04T20:11:09.357Z,87.79
2019-03-04T20:13:37.504Z,87.69
2019-03-04T20:16:06.900Z,87.12
2019-03-04T20:18:34.999Z,87.80
2019-03-04T20:21:03.119Z,87.01
2019-03-04T20:23:31.424Z,86.01
2019-03-04T20:26:00.098Z,86.58
2019-03-04T20:28:28.214Z,86.86
2019-03-04T20:30:56.812Z,87.19
2019-03-04T20:33:26.848Z,86.32
2019-03-04T20:35:55.897Z,86.02
2019-03-04T20:38:45.055Z,86.13
2019-03-04T20:41:13.761Z,85.98
2019-03-04T20:43:41.882Z,88.16
2019-03-04T20:46:10.094Z,87.51
2019-03-04T20:48:38.191Z,87.45
2019-03-04T20:51:07.760Z,87.91
2019-03-04T20:53:36.995Z,87.27
2019-03-04T20:56:05.088Z,87.62
2019-03-04T20:58:33.851Z,87.19
2019-03-04T21:01:01.946Z,86.21
2019-03-04T21:03:34.840Z,86.33
2019-03-04T21:06:00.818Z,88.11
2019-03-04T21:08:29.237Z,89.28
2019-03-04T21:10:57.568Z,89.41
2019-03-04T21:13:35.244Z,89.48
2019-03-04T21:15:56.024Z,88.56
2019-03-04T21:18:24.599Z,88.56
2019-03-04T21:20:52.890Z,89.49
2019-03-04T21:23:21.563Z,89.86
2019-03-04T21:26:03.806Z,89.65
2019-03-04T21:28:44.687Z,89.74
2019-03-04T21:31:41.104Z,88.89
2019-03-04T21:34:43.847Z,88.90
2019-03-04T21:37:42.361Z,89.37
2019-03-04T21:40:36.172Z,88.75
2019-03-04T21:43:11.683Z,88.59
2019-03-04T21:46:08.821Z,87.64
2019-03-04T21:48:59.163Z,87.08
2019-03-04T21:51:53.902Z,87.29
2019-03-04T21:54:21.728Z,87.62
2019-03-04T21:57:14.649Z,88.54
2019-03-04T21:59:43.547Z,87.41
2019-03-04T22:02:18.255Z,86.79
2019-03-04T22:04:46.008Z,86.57
2019-03-04T22:07:15.103Z,86.62
2019-03-04T22:09:42.746Z,86.52
2019-03-04T22:12:12.490Z,85.36
2019-03-04T22:14:40.007Z,83.73
2019-03-04T22:17:07.660Z,84.59
2019-03-04T22:19:35.171Z,86.40
2019-03-04T22:22:02.697Z,85.24
2019-03-04T22:24:30.177Z,83.19
2019-03-04T22:26:57.680Z,81.58
2019-03-04T22:29:25.215Z,80.45
2019-03-04T22:31:52.757Z,80.44
2019-03-04T22:34:20.225Z,80.11
2019-03-04T22:36:48.163Z,79.21
2019-03-04T22:39:15.798Z,79.67
2019-03-04T22:41:43.408Z,81.26
2019-03-04T22:44:10.961Z,81.42
2019-03-04T22:46:38.811Z,81.16
2019-03-04T22:49:06.329Z,79.46
2019-03-04T22:51:33.816Z,78.32
2019-03-04T22:54:02.075Z,79.02
2019-03-04T22:56:29.600Z,79.35
2019-03-04T22:58:57.097Z,79.30
2019-03-04T23:01:55.218Z,79.73
2019-03-04T23:04:41.132Z,79.37
2019-03-04T23:07:14.021Z,82.35
2019-03-04T23:10:06.060Z,82.90
2019-03-04T23:12:48.637Z,82.86
2019-03-04T23:15:22.428Z,83.16
2019-03-04T23:17:50.093Z,85.63
2019-03-04T23:20:17.525Z,85.47
2019-03-04T23:22:45.057Z,85.58
2019-03-04T23:25:23.139Z,85.44
2019-03-04T23:27:50.660Z,84.48
2019-03-04T23:30:18.237Z,85.13
2019-03-04T23:32:47.761Z,85.65
2019-03-04T23:35:15.288Z,86.14
2019-03-04T23:37:42.897Z,85.58
2019-03-04T23:40:10.695Z,85.24
2019-03-04T23:42:38.329Z,84.99
2019-03-04T23:45:08.027Z,84.93
2019-03-04T23:47:37.155Z,82.89
2019-03-04T23:50:13.518Z,82.77
2019-03-04T23:52:40.938Z,82.25
2019-03-04T23:55:08.495Z,82.73
2019-03-04T23:57:36.018Z,83.07
